FD45 weather

Fort Walton Beach Medical Ctr Heliport
Fort Walton Beach, Florida, United States

Public forecast

Using degrees Fahrenheit for public forecast. Weather courtesy of forecast.io.

METAR (pilot weather report)

Closest report is Hurlburt Field, 3.2 nm (5.9 km) WSW. Retrieved 2018/07/15 21:56 UTC (35 minutes ago):

KHRT 152156Z 19008KT 10SM FEW030 BKN250 30/24 A2999 RMK AO2A LTG DSNT N SLP157 T03040243 $

TAF (pilot weather forecast)

Closest forecast is Hurlburt Field, 3.2 nm (5.9 km) WSW. Retrieved 2018/07/15 17:15 UTC (5 hours ago):

TAF KHRT 151700Z 1517/1623 21006KT 9999 SCT023 QNH2997INS TEMPO 1518/1520 18012G20KT 6000 -TSRA BKN025CB BECMG 1604/1605 VRB06KT 9999 SCT040 QNH3000INS BECMG 1616/1617 20006KT 9999 FEW025 SCT050 BKN130 QNH2998INS TEMPO 1618/1620 18012G20KT 6000 -TSRA BKN025CB TX34/1520Z TN23/1610Z